Time;durP1;ratioP1;P1;durP2;ratioP2;P2;SDS_P1;SDS_P2;PMS_P1;PMS_P2;Temp;Humidity;BMP_temperature;BMP_pressure;BME280_temperature;BME280_humidity;BME280_pressure;Samples;Min_cycle;Max_cycle;Signal;HPM_P1;HPM_P2
2022/05/04 00:01:39;;;;;;;;;;;;;;;;;;5056412;28;19974;-74
2022/05/04 00:04:06;;;;;;;;;;;;;;;;;;5056168;28;19925;-74
2022/05/04 00:06:31;;;;;;;;;;;;;;;;;;5055296;28;19996;-73
2022/05/04 00:09:01;;;;;;;;;;;;;;;;;;5056035;28;20291;-73
2022/05/04 00:11:26;;;;;;;;;;;;;;;;;;5056164;28;19929;-74
2022/05/04 00:13:51;;;;;;;;;;;;;;;;;;5056494;28;19951;-73
2022/05/04 00:16:16;;;;;;;;;;;;;;;;;;5038153;28;20342;-74
2022/05/04 00:18:44;;;;;;;;;;;;;;;;;;5056780;28;19912;-74
2022/05/04 00:21:09;;;;;;;;;;;;;;;;;;5056247;28;19921;-73
2022/05/04 00:23:34;;;;;;;;;;;;;;;;;;5055237;28;19928;-74
2022/05/04 00:26:00;;;;;;;;;;;;;;;;;;5055628;28;19916;-73
2022/05/04 00:28:25;;;;;;;;;;;;;;;;;;5051180;28;20326;-73
2022/05/04 00:30:50;;;;;;;;;;;;;;;;;;5055573;28;20016;-73
2022/05/04 00:33:15;;;;;;;;;;;;;;;;;;5056488;28;19995;-73
2022/05/04 00:35:40;;;;;;;;;;;;;;;;;;5055923;28;20210;-73
2022/05/04 00:38:08;;;;;;;;;;;;;;;;;;5055833;28;19917;-72
2022/05/04 00:40:33;;;;;;;;;;;;;;;;;;5054487;28;19923;-73
2022/05/04 00:42:58;;;;;;;;;;;;;;;;;;5055216;28;19921;-73
2022/05/04 00:45:23;;;;;;;;;;;;;;;;;;5054313;28;20385;-73
2022/05/04 00:47:49;;;;;;;;;;;;;;;;;;5037744;28;19913;-73
2022/05/04 00:50:14;;;;;;;;;;;;;;;;;;5055235;28;19931;-73
2022/05/04 00:52:41;;;;;;;;;;;;;;;;;;5037146;28;19917;-74
2022/05/04 00:55:07;;;;;;;;;;;;;;;;;;5055296;28;19927;-73
2022/05/04 01:00:16;;;;;;;;;;;;;;;;;;5055122;28;20313;-73
2022/05/04 01:02:42;;;;;;;;;;;;;;;;;;5054799;28;19916;-73
2022/05/04 01:05:13;;;;;;;;;;;;;;;;;;5037662;28;19978;-73
2022/05/04 01:07:41;;;;;;;;;;;;;;;;;;5038429;28;20519;-74
2022/05/04 01:10:09;;;;;;;;;;;;;;;;;;5048227;28;20357;-74
2022/05/04 01:12:35;;;;;;;;;;;;;;;;;;5052407;28;19917;-73
2022/05/04 01:15:04;;;;;;;;;;;;;;;;;;5048474;28;19916;-73
2022/05/04 01:17:29;;;;;;;;;;;;;;;;;;5051179;28;19956;-73
2022/05/04 01:19:55;;;;;;;;;;;;;;;;;;5048026;28;19974;-73
2022/05/04 01:22:22;;;;;;;;;;;;;;;;;;5053967;28;19925;-73
2022/05/04 01:24:47;;;;;;;;;;;;;;;;;;5054626;28;20003;-74
2022/05/04 01:27:12;;;;;;;;;;;;;;;;;;5036579;28;20308;-74
2022/05/04 01:29:37;;;;;;;;;;;;;;;;;;5036851;28;19931;-73
2022/05/04 01:32:03;;;;;;;;;;;;;;;;;;5052368;28;19917;-74
2022/05/04 01:34:28;;;;;;;;;;;;;;;;;;5054240;28;19925;-73
2022/05/04 01:36:53;;;;;;;;;;;;;;;;;;5054990;28;19919;-73
2022/05/04 01:39:21;;;;;;;;;;;;;;;;;;5054997;28;19913;-73
2022/05/04 01:42:13;;;;;;;;;;;;;;;;;;5054830;28;19956;-74
2022/05/04 01:44:38;;;;;;;;;;;;;;;;;;5041184;28;20373;-74
2022/05/04 01:47:04;;;;;;;;;;;;;;;;;;5054499;28;19913;-73
2022/05/04 01:49:29;;;;;;;;;;;;;;;;;;5054848;28;19917;-72
2022/05/04 01:51:54;;;;;;;;;;;;;;;;;;5054580;28;19974;-72
2022/05/04 01:54:19;;;;;;;;;;;;;;;;;;5053820;28;20003;-72
2022/05/04 01:56:47;;;;;;;;;;;;;;;;;;5036071;28;19964;-72
2022/05/04 01:59:12;;;;;;;;;;;;;;;;;;5053864;28;19927;-72
2022/05/04 02:01:38;;;;;;;;;;;;;;;;;;5051758;28;19916;-72
2022/05/04 02:04:05;;;;;;;;;;;;;;;;;;5054342;28;20326;-73
2022/05/04 02:06:31;;;;;;;;;;;;;;;;;;5052945;28;19967;-72
2022/05/04 02:08:57;;;;;;;;;;;;;;;;;;5036490;28;20302;-72
2022/05/04 02:11:22;;;;;;;;;;;;;;;;;;5052763;28;20488;-72
2022/05/04 02:13:49;;;;;;;;;;;;;;;;;;5054449;28;19925;-76
2022/05/04 02:16:15;;;;;;;;;;;;;;;;;;5053082;28;19916;-76
2022/05/04 02:18:40;;;;;;;;;;;;;;;;;;5052668;28;19917;-76
2022/05/04 02:21:05;;;;;;;;;;;;;;;;;;5052701;28;19917;-76
2022/05/04 02:23:36;;;;;;;;;;;;;;;;;;5053649;28;19952;-77
2022/05/04 02:26:05;;;;;;;;;;;;;;;;;;5053266;28;20020;-75
2022/05/04 02:28:33;;;;;;;;;;;;;;;;;;5053445;28;19921;-77
2022/05/04 02:31:00;;;;;;;;;;;;;;;;;;5051705;28;19921;-78
2022/05/04 02:33:25;;;;;;;;;;;;;;;;;;5019619;28;19913;-75
2022/05/04 02:38:37;;;;;;;;;;;;;;;;;;5053759;28;19995;-75
2022/05/04 02:41:07;;;;;;;;;;;;;;;;;;5054087;28;19942;-76
2022/05/04 02:43:32;;;;;;;;;;;;;;;;;;5049955;28;19921;-75
2022/05/04 02:46:13;;;;;;;;;;;;;;;;;;5053552;28;19917;-75
2022/05/04 02:48:38;;;;;;;;;;;;;;;;;;5053700;28;19928;-76
2022/05/04 02:51:06;;;;;;;;;;;;;;;;;;5053526;28;19920;-75
2022/05/04 02:53:31;;;;;;;;;;;;;;;;;;5053115;28;19916;-76
2022/05/04 02:55:56;;;;;;;;;;;;;;;;;;5053489;28;20003;-76
2022/05/04 02:58:21;;;;;;;;;;;;;;;;;;5035701;28;19964;-76
2022/05/04 03:00:46;;;;;;;;;;;;;;;;;;5053628;28;19935;-77
2022/05/04 03:03:14;;;;;;;;;;;;;;;;;;5051374;28;19962;-75
2022/05/04 03:05:39;;;;;;;;;;;;;;;;;;5052710;28;19924;-76
2022/05/04 03:08:07;;;;;;;;;;;;;;;;;;5047146;28;19999;-76
2022/05/04 03:11:54;;;;;;;;;;;;;;;;;;5056828;28;19917;-76
2022/05/04 03:13:17;;;;;;;;;;;;;;;;;;5041424;28;19916;-77
2022/05/04 03:15:44;;;;;;;;;;;;;;;;;;5057120;28;19928;-76
2022/05/04 03:18:12;;;;;;;;;;;;;;;;;;5057276;28;19975;-76
2022/05/04 03:20:37;;;;;;;;;;;;;;;;;;5056571;28;19917;-76
2022/05/04 03:23:07;;;;;;;;;;;;;;;;;;5056613;28;19920;-76
2022/05/04 03:25:35;;;;;;;;;;;;;;;;;;5057171;28;19913;-76
2022/05/04 03:28:00;;;;;;;;;;;;;;;;;;5056315;28;19923;-77
2022/05/04 03:30:25;;;;;;;;;;;;;;;;;;5055716;28;19920;-77
2022/05/04 03:32:50;;;;;;;;;;;;;;;;;;5056615;28;19927;-76
2022/05/04 03:35:18;;;;;;;;;;;;;;;;;;5055911;28;19927;-75
2022/05/04 03:37:46;;;;;;;;;;;;;;;;;;5033142;28;19971;-77
2022/05/04 03:40:13;;;;;;;;;;;;;;;;;;5039542;28;19928;-77
2022/05/04 03:42:40;;;;;;;;;;;;;;;;;;5056551;28;20433;-76
2022/05/04 03:45:08;;;;;;;;;;;;;;;;;;5057334;28;19950;-76
2022/05/04 03:47:33;;;;;;;;;;;;;;;;;;5038566;28;19917;-76
2022/05/04 03:49:58;;;;;;;;;;;;;;;;;;5056761;28;19932;-76
2022/05/04 03:52:24;;;;;;;;;;;;;;;;;;5038786;28;19925;-77
2022/05/04 03:54:49;;;;;;;;;;;;;;;;;;5055128;28;19917;-78
2022/05/04 03:57:37;;;;;;;;;;;;;;;;;;5056433;28;20407;-77
2022/05/04 04:00:03;;;;;;;;;;;;;;;;;;5052217;28;19916;-77
2022/05/04 04:02:31;;;;;;;;;;;;;;;;;;5055534;28;19947;-76
2022/05/04 04:04:56;;;;;;;;;;;;;;;;;;5056021;28;19917;-76
2022/05/04 04:07:26;;;;;;;;;;;;;;;;;;5055759;28;19920;-76
2022/05/04 04:09:51;;;;;;;;;;;;;;;;;;5054943;28;19920;-77
2022/05/04 04:12:19;;;;;;;;;;;;;;;;;;5055323;28;20345;-76
2022/05/04 04:14:46;;;;;;;;;;;;;;;;;;5055867;28;19916;-76
2022/05/04 04:17:11;;;;;;;;;;;;;;;;;;5055539;28;19932;-77
2022/05/04 04:19:39;;;;;;;;;;;;;;;;;;5055300;28;19917;-76
2022/05/04 04:22:04;;;;;;;;;;;;;;;;;;5056284;28;19913;-76
2022/05/04 04:24:35;;;;;;;;;;;;;;;;;;5055251;28;19942;-77
2022/05/04 04:27:00;;;;;;;;;;;;;;;;;;5031010;28;19920;-77
2022/05/04 04:29:27;;;;;;;;;;;;;;;;;;5054207;28;19927;-77
2022/05/04 04:31:52;;;;;;;;;;;;;;;;;;5056141;28;19916;-77
2022/05/04 04:34:23;;;;;;;;;;;;;;;;;;5056445;28;20007;-77
2022/05/04 04:36:48;;;;;;;;;;;;;;;;;;5054743;28;20007;-77
2022/05/04 04:39:13;;;;;;;;;;;;;;;;;;5054585;28;20004;-77
2022/05/04 04:41:38;;;;;;;;;;;;;;;;;;5053835;28;19925;-76
2022/05/04 04:44:04;;;;;;;;;;;;;;;;;;5054787;28;19960;-77
2022/05/04 04:46:29;;;;;;;;;;;;;;;;;;5056084;28;19980;-77
2022/05/04 04:48:58;;;;;;;;;;;;;;;;;;5054943;28;20376;-77
2022/05/04 04:51:23;;;;;;;;;;;;;;;;;;5054607;28;19920;-76
2022/05/04 04:53:51;;;;;;;;;;;;;;;;;;5055298;28;19982;-76
2022/05/04 04:56:16;;;;;;;;;;;;;;;;;;5055736;28;20396;-76
2022/05/04 04:58:41;;;;;;;;;;;;;;;;;;5055362;28;19916;-76
2022/05/04 05:01:06;;;;;;;;;;;;;;;;;;5036230;28;19966;-76
2022/05/04 05:03:34;;;;;;;;;;;;;;;;;;5055506;28;20635;-76
2022/05/04 05:06:02;;;;;;;;;;;;;;;;;;5048896;28;19931;-77
2022/05/04 05:08:27;;;;;;;;;;;;;;;;;;5055113;28;19917;-77
2022/05/04 05:10:52;;;;;;;;;;;;;;;;;;5054226;28;19920;-76
2022/05/04 05:13:18;;;;;;;;;;;;;;;;;;5054719;28;19920;-78
2022/05/04 05:18:29;;;;;;;;;;;;;;;;;;5050265;28;19928;-75
2022/05/04 05:20:54;;;;;;;;;;;;;;;;;;5054389;28;19923;-75
2022/05/04 05:23:22;;;;;;;;;;;;;;;;;;5054634;28;19916;-76
2022/05/04 05:25:47;;;;;;;;;;;;;;;;;;5054513;28;19917;-76
2022/05/04 05:28:15;;;;;;;;;;;;;;;;;;5037154;28;19943;-77
2022/05/04 05:30:45;;;;;;;;;;;;;;;;;;5036552;28;20020;-78
2022/05/04 05:33:10;;;;;;;;;;;;;;;;;;5053646;28;19927;-77
2022/05/04 05:35:41;;;;;;;;;;;;;;;;;;5054723;28;19917;-76
2022/05/04 05:38:07;;;;;;;;;;;;;;;;;;5054647;28;20215;-77
2022/05/04 05:40:37;;;;;;;;;;;;;;;;;;5054904;28;20358;-77
2022/05/04 05:43:07;;;;;;;;;;;;;;;;;;5053572;28;19925;-76
2022/05/04 05:45:32;;;;;;;;;;;;;;;;;;5041468;28;20360;-76
2022/05/04 05:48:00;;;;;;;;;;;;;;;;;;5054905;28;19920;-77
2022/05/04 05:50:25;;;;;;;;;;;;;;;;;;5054008;28;20330;-77
2022/05/04 05:52:53;;;;;;;;;;;;;;;;;;5036682;28;19921;-76
2022/05/04 05:55:18;;;;;;;;;;;;;;;;;;5036419;28;19917;-74
2022/05/04 05:57:43;;;;;;;;;;;;;;;;;;5036536;28;19928;-76
2022/05/04 06:00:09;;;;;;;;;;;;;;;;;;5053951;28;19928;-77
2022/05/04 06:02:34;;;;;;;;;;;;;;;;;;5054622;28;19917;-76
2022/05/04 06:04:59;;;;;;;;;;;;;;;;;;5053715;28;19917;-77
2022/05/04 06:07:24;;;;;;;;;;;;;;;;;;5054162;28;20246;-77
2022/05/04 06:09:50;;;;;;;;;;;;;;;;;;5054734;28;20353;-77
2022/05/04 06:12:18;;;;;;;;;;;;;;;;;;5036228;28;20025;-77
2022/05/04 06:14:43;;;;;;;;;;;;;;;;;;5054119;28;19917;-76
2022/05/04 06:17:10;;;;;;;;;;;;;;;;;;5053351;28;20269;-77
2022/05/04 06:19:35;;;;;;;;;;;;;;;;;;5048870;28;20238;-76
2022/05/04 06:22:01;;;;;;;;;;;;;;;;;;5037228;28;20317;-78
2022/05/04 06:24:35;;;;;;;;;;;;;;;;;;5052409;28;20373;-77
2022/05/04 06:27:02;;;;;;;;;;;;;;;;;;5030774;28;19978;-77
2022/05/04 06:34:55;;;;;;;;;;;;;;;;;;5038690;28;19936;-78
2022/05/04 06:37:21;;;;;;;;;;;;;;;;;;5033615;28;19916;-77
2022/05/04 06:39:48;;;;;;;;;;;;;;;;;;5053321;28;19917;-77
2022/05/04 06:42:14;;;;;;;;;;;;;;;;;;5051287;28;19927;-77
2022/05/04 06:44:44;;;;;;;;;;;;;;;;;;5054693;28;19921;-78
2022/05/04 06:47:09;;;;;;;;;;;;;;;;;;5057798;28;20310;-78
2022/05/04 06:49:37;;;;;;;;;;;;;;;;;;5052514;28;19920;-76
2022/05/04 06:52:02;;;;;;;;;;;;;;;;;;5056207;28;19925;-78
2022/05/04 06:54:30;;;;;;;;;;;;;;;;;;5042541;28;20233;-78
2022/05/04 06:56:57;;;;;;;;;;;;;;;;;;5056269;28;19916;-78
2022/05/04 06:59:23;;;;;;;;;;;;;;;;;;5055866;28;19928;-78
2022/05/04 07:01:53;;;;;;;;;;;;;;;;;;5057258;28;19920;-78
2022/05/04 07:04:18;;;;;;;;;;;;;;;;;;5057355;28;19917;-76
2022/05/04 07:06:46;;;;;;;;;;;;;;;;;;5056650;28;19999;-79
2022/05/04 07:09:11;;;;;;;;;;;;;;;;;;5057812;28;19913;-80
2022/05/04 07:11:36;;;;;;;;;;;;;;;;;;5057139;28;20000;-78
2022/05/04 07:14:01;;;;;;;;;;;;;;;;;;5038704;28;19947;-77
2022/05/04 07:16:26;;;;;;;;;;;;;;;;;;5055690;28;19927;-78
2022/05/04 07:18:54;;;;;;;;;;;;;;;;;;5038967;28;19928;-77
2022/05/04 07:21:19;;;;;;;;;;;;;;;;;;5055450;28;19931;-78
2022/05/04 07:23:47;;;;;;;;;;;;;;;;;;5044236;28;20009;-78
2022/05/04 07:26:12;;;;;;;;;;;;;;;;;;5056783;28;19927;-77
2022/05/04 07:28:38;;;;;;;;;;;;;;;;;;5056972;28;19917;-78
2022/05/04 07:31:03;;;;;;;;;;;;;;;;;;5056256;28;19952;-77
2022/05/04 07:33:28;;;;;;;;;;;;;;;;;;5056905;28;19931;-78
2022/05/04 07:35:56;;;;;;;;;;;;;;;;;;5055584;28;19921;-78
2022/05/04 07:38:22;;;;;;;;;;;;;;;;;;5056394;28;19917;-77
2022/05/04 07:43:31;;;;;;;;;;;;;;;;;;5056896;28;19966;-79
2022/05/04 07:45:56;;;;;;;;;;;;;;;;;;5055316;28;19952;-78
2022/05/04 07:48:24;;;;;;;;;;;;;;;;;;5057093;28;19917;-79
2022/05/04 07:50:49;;;;;;;;;;;;;;;;;;5038395;28;20007;-78
2022/05/04 07:53:14;;;;;;;;;;;;;;;;;;5056952;28;19928;-79
2022/05/04 07:55:39;;;;;;;;;;;;;;;;;;5056210;28;19994;-79
2022/05/04 07:58:05;;;;;;;;;;;;;;;;;;5048671;28;19952;-79
2022/05/04 08:06:04;;;;;;;;;;;;;;;;;;5053943;28;19931;-77
2022/05/04 08:08:29;;;;;;;;;;;;;;;;;;5038297;28;19956;-78
2022/05/04 08:10:56;;;;;;;;;;;;;;;;;;5056277;28;20056;-78
2022/05/04 08:13:22;;;;;;;;;;;;;;;;;;5056740;28;19935;-78
2022/05/04 08:15:49;;;;;;;;;;;;;;;;;;5038288;28;19916;-78
2022/05/04 08:18:16;;;;;;;;;;;;;;;;;;5055222;28;19913;-78
2022/05/04 08:20:42;;;;;;;;;;;;;;;;;;5037102;28;19917;-77
2022/05/04 08:23:10;;;;;;;;;;;;;;;;;;5038657;28;19923;-77
2022/05/04 08:25:35;;;;;;;;;;;;;;;;;;5038395;28;19921;-77
2022/05/04 08:28:00;;;;;;;;;;;;;;;;;;5056688;28;19921;-77
2022/05/04 08:30:25;;;;;;;;;;;;;;;;;;5055978;28;19916;-77
2022/05/04 08:32:51;;;;;;;;;;;;;;;;;;5037703;28;19917;-76
2022/05/04 08:35:17;;;;;;;;;;;;;;;;;;5055016;28;20235;-76
2022/05/04 08:37:42;;;;;;;;;;;;;;;;;;5037879;28;19927;-77
2022/05/04 08:40:08;;;;;;;;;;;;;;;;;;5038038;28;19917;-77
2022/05/04 08:42:36;;;;;;;;;;;;;;;;;;5055269;28;19916;-78
2022/05/04 08:45:04;;;;;;;;;;;;;;;;;;5042701;28;19917;-79
2022/05/04 08:47:36;;;;;;;;;;;;;;;;;;5052070;28;19931;-79
2022/05/04 08:50:01;;;;;;;;;;;;;;;;;;5022320;28;19944;-79
2022/05/04 08:52:40;;;;;;;;;;;;;;;;;;5053464;28;19921;-78
2022/05/04 08:55:08;;;;;;;;;;;;;;;;;;5011408;28;19917;-79
2022/05/04 08:57:41;;;;;;;;;;;;;;;;;;4997599;28;19922;-79
2022/05/04 09:00:13;;;;;;;;;;;;;;;;;;5052168;28;19924;-78
2022/05/04 09:02:38;;;;;;;;;;;;;;;;;;5049857;28;19967;-78
2022/05/04 09:05:22;;;;;;;;;;;;;;;;;;5038230;28;20256;-78
2022/05/04 09:07:48;;;;;;;;;;;;;;;;;;5054319;28;20618;-78
2022/05/04 09:10:17;;;;;;;;;;;;;;;;;;5055141;28;19974;-76
2022/05/04 09:12:43;;;;;;;;;;;;;;;;;;5038236;28;20247;-76
2022/05/04 09:15:22;;;;;;;;;;;;;;;;;;5055590;28;20007;-76
2022/05/04 09:17:56;;;;;;;;;;;;;;;;;;5033584;28;19995;-76
2022/05/04 09:23:10;;;;;;;;;;;;;;;;;;5050578;28;19935;-76
2022/05/04 09:25:35;;;;;;;;;;;;;;;;;;5018147;28;19948;-74
2022/05/04 09:28:01;;;;;;;;;;;;;;;;;;5033975;28;20313;-76
2022/05/04 09:30:26;;;;;;;;;;;;;;;;;;5051986;28;19974;-75
2022/05/04 09:32:58;;;;;;;;;;;;;;;;;;5053407;28;20394;-76
2022/05/04 09:35:32;;;;;;;;;;;;;;;;;;5048266;28;20006;-77
2022/05/04 09:46:14;;;;;;;;;;;;;;;;;;5052809;28;19966;-76
2022/05/04 09:48:40;;;;;;;;;;;;;;;;;;5052764;28;19917;-77
2022/05/04 09:51:08;;;;;;;;;;;;;;;;;;5053533;28;20377;-75
2022/05/04 09:53:36;;;;;;;;;;;;;;;;;;5052397;28;20229;-76
2022/05/04 09:56:02;;;;;;;;;;;;;;;;;;5053230;28;19975;-78
2022/05/04 09:58:28;;;;;;;;;;;;;;;;;;5046650;28;20003;-77
2022/05/04 10:00:53;;;;;;;;;;;;;;;;;;5035543;28;20400;-76
2022/05/04 10:03:21;;;;;;;;;;;;;;;;;;5034690;28;20251;-78
2022/05/04 10:05:50;;;;;;;;;;;;;;;;;;5050325;28;19925;-77
2022/05/04 10:08:16;;;;;;;;;;;;;;;;;;5053372;28;19917;-78
2022/05/04 10:10:43;;;;;;;;;;;;;;;;;;5052287;28;19924;-78
2022/05/04 10:13:09;;;;;;;;;;;;;;;;;;5033317;28;19916;-78
2022/05/04 10:15:36;;;;;;;;;;;;;;;;;;5049508;28;19919;-79
2022/05/04 10:18:04;;;;;;;;;;;;;;;;;;5047276;28;19916;-75
2022/05/04 10:20:52;;;;;;;;;;;;;;;;;;5035056;28;19920;-75
2022/05/04 10:23:28;;;;;;;;;;;;;;;;;;5033194;28;19917;-76
2022/05/04 10:25:53;;;;;;;;;;;;;;;;;;5037061;28;20008;-76
2022/05/04 10:28:18;;;;;;;;;;;;;;;;;;5034561;28;20408;-75
2022/05/04 10:30:47;;;;;;;;;;;;;;;;;;5052540;28;19920;-75
2022/05/04 10:33:13;;;;;;;;;;;;;;;;;;5046024;28;20330;-76
2022/05/04 10:35:40;;;;;;;;;;;;;;;;;;5031594;28;19967;-75
2022/05/04 10:38:07;;;;;;;;;;;;;;;;;;5046576;28;20306;-76
2022/05/04 10:40:38;;;;;;;;;;;;;;;;;;5032956;28;20309;-78
2022/05/04 10:43:07;;;;;;;;;;;;;;;;;;5050358;28;19939;-75
2022/05/04 10:45:34;;;;;;;;;;;;;;;;;;5050785;28;19948;-75
2022/05/04 10:48:25;;;;;;;;;;;;;;;;;;5052713;28;19916;-75
2022/05/04 10:51:00;;;;;;;;;;;;;;;;;;5029564;28;19982;-75
2022/05/04 10:53:25;;;;;;;;;;;;;;;;;;5035596;28;20004;-76
2022/05/04 10:56:00;;;;;;;;;;;;;;;;;;5052517;28;20011;-75
2022/05/04 10:58:29;;;;;;;;;;;;;;;;;;5033728;28;19964;-75
2022/05/04 11:01:10;;;;;;;;;;;;;;;;;;5055496;28;20345;-75
2022/05/04 11:03:36;;;;;;;;;;;;;;;;;;5054275;28;19917;-75
2022/05/04 11:06:08;;;;;;;;;;;;;;;;;;5035215;28;20357;-74
2022/05/04 11:08:35;;;;;;;;;;;;;;;;;;5049820;28;20345;-73
2022/05/04 11:11:00;;;;;;;;;;;;;;;;;;5051125;28;20253;-75
2022/05/04 11:13:25;;;;;;;;;;;;;;;;;;5034119;28;19936;-74
2022/05/04 11:15:52;;;;;;;;;;;;;;;;;;5033207;28;19913;-74
2022/05/04 11:18:18;;;;;;;;;;;;;;;;;;5050583;28;19935;-76
2022/05/04 11:20:46;;;;;;;;;;;;;;;;;;5052603;28;20016;-74
2022/05/04 11:23:12;;;;;;;;;;;;;;;;;;5045798;28;20388;-74
2022/05/04 11:25:37;;;;;;;;;;;;;;;;;;5034752;28;19913;-74
2022/05/04 11:28:02;;;;;;;;;;;;;;;;;;5031443;28;19960;-75
2022/05/04 11:30:28;;;;;;;;;;;;;;;;;;5013538;28;19971;-76
2022/05/04 11:32:53;;;;;;;;;;;;;;;;;;5056776;28;19976;-74
2022/05/04 11:35:18;;;;;;;;;;;;;;;;;;5057078;28;20676;-74
2022/05/04 11:37:43;;;;;;;;;;;;;;;;;;5039647;28;19923;-75
2022/05/04 11:40:16;;;;;;;;;;;;;;;;;;5057131;28;20662;-75
2022/05/04 11:42:41;;;;;;;;;;;;;;;;;;5057081;28;19913;-75
2022/05/04 11:45:07;;;;;;;;;;;;;;;;;;5055871;28;19940;-76
2022/05/04 11:47:32;;;;;;;;;;;;;;;;;;5056602;28;19936;-75
2022/05/04 11:49:59;;;;;;;;;;;;;;;;;;5036901;28;20031;-75
2022/05/04 11:52:25;;;;;;;;;;;;;;;;;;5055032;28;20331;-76
2022/05/04 11:54:52;;;;;;;;;;;;;;;;;;5037673;28;19917;-76
2022/05/04 11:57:19;;;;;;;;;;;;;;;;;;5055848;28;19919;-75
2022/05/04 11:59:46;;;;;;;;;;;;;;;;;;5055057;28;19975;-75
2022/05/04 12:02:11;;;;;;;;;;;;;;;;;;5036287;28;19955;-75
2022/05/04 12:04:36;;;;;;;;;;;;;;;;;;5042020;28;19955;-74
2022/05/04 12:07:01;;;;;;;;;;;;;;;;;;5045488;28;19959;-76
2022/05/04 12:09:27;;;;;;;;;;;;;;;;;;5036113;28;19939;-75
2022/05/04 12:11:52;;;;;;;;;;;;;;;;;;5055097;28;19947;-74
2022/05/04 12:14:17;;;;;;;;;;;;;;;;;;5055396;28;20011;-75
2022/05/04 12:16:43;;;;;;;;;;;;;;;;;;5055516;28;20341;-75
2022/05/04 12:19:08;;;;;;;;;;;;;;;;;;5055323;28;20011;-75
2022/05/04 12:21:33;;;;;;;;;;;;;;;;;;5055241;28;19928;-76
2022/05/04 12:24:00;;;;;;;;;;;;;;;;;;5055294;28;19917;-75
2022/05/04 12:26:25;;;;;;;;;;;;;;;;;;5055316;28;20247;-75
2022/05/04 12:34:21;;;;;;;;;;;;;;;;;;5055719;28;19935;-75
2022/05/04 12:36:47;;;;;;;;;;;;;;;;;;5038520;28;19912;-75
2022/05/04 12:39:12;;;;;;;;;;;;;;;;;;5055803;28;19921;-74
2022/05/04 12:41:41;;;;;;;;;;;;;;;;;;5055735;28;19963;-74
2022/05/04 12:44:06;;;;;;;;;;;;;;;;;;5037832;28;19917;-75
2022/05/04 12:46:34;;;;;;;;;;;;;;;;;;5054400;28;20249;-75
2022/05/04 12:48:59;;;;;;;;;;;;;;;;;;5056628;28;19917;-74
2022/05/04 12:51:27;;;;;;;;;;;;;;;;;;5041326;28;20253;-75
2022/05/04 12:53:55;;;;;;;;;;;;;;;;;;5039278;28;19913;-75
2022/05/04 12:59:07;;;;;;;;;;;;;;;;;;5055252;28;19923;-75
2022/05/04 13:01:38;;;;;;;;;;;;;;;;;;5037080;28;20365;-74
2022/05/04 13:04:08;;;;;;;;;;;;;;;;;;5037194;28;19927;-75
2022/05/04 13:06:33;;;;;;;;;;;;;;;;;;5031966;28;19916;-75
2022/05/04 13:08:59;;;;;;;;;;;;;;;;;;5049940;28;19924;-76
2022/05/04 13:11:31;;;;;;;;;;;;;;;;;;5050323;28;19921;-75
2022/05/04 13:13:56;;;;;;;;;;;;;;;;;;5053988;28;19928;-75
2022/05/04 13:16:28;;;;;;;;;;;;;;;;;;5033790;28;19917;-75
2022/05/04 13:18:54;;;;;;;;;;;;;;;;;;5053348;28;19927;-75
2022/05/04 13:21:22;;;;;;;;;;;;;;;;;;5054812;28;19917;-74
2022/05/04 13:23:47;;;;;;;;;;;;;;;;;;5052887;28;19913;-74
2022/05/04 13:26:14;;;;;;;;;;;;;;;;;;5054843;28;19913;-76
2022/05/04 13:28:39;;;;;;;;;;;;;;;;;;5054493;28;20337;-75
2022/05/04 13:31:04;;;;;;;;;;;;;;;;;;5054364;28;19947;-75
2022/05/04 13:33:31;;;;;;;;;;;;;;;;;;5042733;28;20146;-76
2022/05/04 13:36:00;;;;;;;;;;;;;;;;;;5054746;28;20444;-75
2022/05/04 13:38:26;;;;;;;;;;;;;;;;;;5046733;28;19935;-75
2022/05/04 13:40:54;;;;;;;;;;;;;;;;;;5031534;28;19921;-76
2022/05/04 13:43:19;;;;;;;;;;;;;;;;;;5034309;28;19921;-75
2022/05/04 13:45:48;;;;;;;;;;;;;;;;;;5013029;28;20752;-76
2022/05/04 13:48:13;;;;;;;;;;;;;;;;;;5049449;28;19947;-77
2022/05/04 13:53:25;;;;;;;;;;;;;;;;;;5033141;28;19978;-76
2022/05/04 13:55:50;;;;;;;;;;;;;;;;;;5051318;28;20342;-76
2022/05/04 13:58:19;;;;;;;;;;;;;;;;;;5048568;28;19920;-76
2022/05/04 14:00:46;;;;;;;;;;;;;;;;;;5052204;28;19924;-77
2022/05/04 14:03:13;;;;;;;;;;;;;;;;;;5030211;28;19925;-75
2022/05/04 14:05:39;;;;;;;;;;;;;;;;;;5048528;28;20618;-77
2022/05/04 14:08:04;;;;;;;;;;;;;;;;;;5037754;28;20011;-77
2022/05/04 14:10:32;;;;;;;;;;;;;;;;;;5030423;28;19973;-77
2022/05/04 14:13:00;;;;;;;;;;;;;;;;;;5048912;28;20066;-76
2022/05/04 14:15:28;;;;;;;;;;;;;;;;;;5031293;28;19970;-78
2022/05/04 14:17:55;;;;;;;;;;;;;;;;;;5048673;28;19968;-77
2022/05/04 14:20:23;;;;;;;;;;;;;;;;;;5034160;28;19925;-76
2022/05/04 14:22:51;;;;;;;;;;;;;;;;;;5029584;28;19956;-79
2022/05/04 14:25:24;;;;;;;;;;;;;;;;;;5049429;28;20242;-77
2022/05/04 14:27:54;;;;;;;;;;;;;;;;;;5029326;28;19924;-77
2022/05/04 14:30:22;;;;;;;;;;;;;;;;;;5047531;28;19940;-77
2022/05/04 14:32:47;;;;;;;;;;;;;;;;;;5050263;28;19916;-77
2022/05/04 14:35:12;;;;;;;;;;;;;;;;;;5048565;28;19932;-79
2022/05/04 14:37:44;;;;;;;;;;;;;;;;;;5046438;28;19921;-78
2022/05/04 14:40:10;;;;;;;;;;;;;;;;;;5046680;28;19925;-77
2022/05/04 14:42:44;;;;;;;;;;;;;;;;;;5046085;28;20015;-77
2022/05/04 14:45:11;;;;;;;;;;;;;;;;;;5029661;28;20525;-76
2022/05/04 14:47:39;;;;;;;;;;;;;;;;;;5045528;28;20274;-78
2022/05/04 14:50:05;;;;;;;;;;;;;;;;;;5046072;28;21593;-77
2022/05/04 14:52:32;;;;;;;;;;;;;;;;;;5028859;28;19917;-75
2022/05/04 14:54:58;;;;;;;;;;;;;;;;;;5049434;28;19925;-74
2022/05/04 14:57:25;;;;;;;;;;;;;;;;;;5044069;28;20373;-76
2022/05/04 14:59:56;;;;;;;;;;;;;;;;;;5048350;28;19917;-75
2022/05/04 15:02:21;;;;;;;;;;;;;;;;;;5047276;28;20008;-77
2022/05/04 15:05:05;;;;;;;;;;;;;;;;;;5027939;28;19999;-78
2022/05/04 15:07:33;;;;;;;;;;;;;;;;;;5032348;28;20287;-77
2022/05/04 15:09:59;;;;;;;;;;;;;;;;;;5048931;28;19927;-74
2022/05/04 15:12:46;;;;;;;;;;;;;;;;;;5034751;28;19916;-76
2022/05/04 15:15:11;;;;;;;;;;;;;;;;;;5052561;28;20487;-78
2022/05/04 15:17:37;;;;;;;;;;;;;;;;;;5051565;28;20084;-77
2022/05/04 15:20:04;;;;;;;;;;;;;;;;;;5051649;28;19917;-77
2022/05/04 15:22:32;;;;;;;;;;;;;;;;;;5030605;28;19936;-78
2022/05/04 15:24:59;;;;;;;;;;;;;;;;;;5049922;28;19932;-79
2022/05/04 15:27:24;;;;;;;;;;;;;;;;;;5049880;28;19939;-79
2022/05/04 15:29:50;;;;;;;;;;;;;;;;;;5047768;28;19924;-78
2022/05/04 15:32:15;;;;;;;;;;;;;;;;;;5048330;28;20356;-75
2022/05/04 15:34:40;;;;;;;;;;;;;;;;;;5049490;28;20445;-76
2022/05/04 15:37:08;;;;;;;;;;;;;;;;;;5029790;28;19986;-75
2022/05/04 15:39:36;;;;;;;;;;;;;;;;;;5052057;28;20581;-75
2022/05/04 15:42:04;;;;;;;;;;;;;;;;;;5035906;28;19917;-75
2022/05/04 15:44:29;;;;;;;;;;;;;;;;;;5054538;28;19916;-75
2022/05/04 15:46:54;;;;;;;;;;;;;;;;;;5056230;28;19923;-75
2022/05/04 15:49:19;;;;;;;;;;;;;;;;;;5055454;28;19983;-74
2022/05/04 15:51:45;;;;;;;;;;;;;;;;;;5054137;28;20312;-75
2022/05/04 15:54:10;;;;;;;;;;;;;;;;;;5047127;28;20381;-76
2022/05/04 15:56:37;;;;;;;;;;;;;;;;;;5049958;28;19946;-74
2022/05/04 15:59:06;;;;;;;;;;;;;;;;;;5044540;28;19928;-75
2022/05/04 16:01:32;;;;;;;;;;;;;;;;;;5045712;28;19956;-76
2022/05/04 16:04:01;;;;;;;;;;;;;;;;;;5049774;28;20646;-74
2022/05/04 16:06:29;;;;;;;;;;;;;;;;;;5048095;28;19974;-76
2022/05/04 16:08:55;;;;;;;;;;;;;;;;;;5050432;28;20012;-75
2022/05/04 16:11:20;;;;;;;;;;;;;;;;;;5047221;28;20050;-75
2022/05/04 16:13:48;;;;;;;;;;;;;;;;;;5034286;28;19966;-75
2022/05/04 16:16:13;;;;;;;;;;;;;;;;;;5050319;28;20297;-74
2022/05/04 16:21:48;;;;;;;;;;;;;;;;;;5051890;28;19924;-76
2022/05/04 16:24:23;;;;;;;;;;;;;;;;;;5034641;28;19999;-76
2022/05/04 16:26:49;;;;;;;;;;;;;;;;;;5049510;28;19923;-76
2022/05/04 16:29:17;;;;;;;;;;;;;;;;;;5034801;28;19999;-77
2022/05/04 16:34:45;;;;;;;;;;;;;;;;;;5049273;28;19951;-77
2022/05/04 16:37:11;;;;;;;;;;;;;;;;;;5035860;28;20326;-78
2022/05/04 16:39:38;;;;;;;;;;;;;;;;;;5051171;28;19928;-77
2022/05/04 16:42:04;;;;;;;;;;;;;;;;;;5052431;28;19917;-77
2022/05/04 16:44:29;;;;;;;;;;;;;;;;;;5053738;28;20258;-77
2022/05/04 16:46:57;;;;;;;;;;;;;;;;;;5053814;28;20242;-77
2022/05/04 16:49:26;;;;;;;;;;;;;;;;;;5034887;28;19916;-76
2022/05/04 16:51:52;;;;;;;;;;;;;;;;;;5052226;28;19955;-78
2022/05/04 16:54:17;;;;;;;;;;;;;;;;;;5049642;28;19998;-76
2022/05/04 16:56:44;;;;;;;;;;;;;;;;;;5049585;28;20390;-76
2022/05/04 16:59:10;;;;;;;;;;;;;;;;;;5047943;28;19924;-75
2022/05/04 17:01:35;;;;;;;;;;;;;;;;;;5050141;28;19936;-75
2022/05/04 17:04:06;;;;;;;;;;;;;;;;;;5053213;28;19913;-76
2022/05/04 17:06:33;;;;;;;;;;;;;;;;;;5033824;28;20015;-75
2022/05/04 17:09:02;;;;;;;;;;;;;;;;;;5052703;28;19917;-75
2022/05/04 17:11:29;;;;;;;;;;;;;;;;;;5051320;28;20365;-76
2022/05/04 17:13:57;;;;;;;;;;;;;;;;;;5049983;28;19917;-76
2022/05/04 17:16:24;;;;;;;;;;;;;;;;;;5051419;28;20364;-75
2022/05/04 17:19:05;;;;;;;;;;;;;;;;;;5047099;28;19943;-76
2022/05/04 17:21:35;;;;;;;;;;;;;;;;;;5025839;28;20381;-76
2022/05/04 17:24:01;;;;;;;;;;;;;;;;;;5051838;28;20253;-76
2022/05/04 17:26:28;;;;;;;;;;;;;;;;;;5034968;28;19925;-74
2022/05/04 17:28:53;;;;;;;;;;;;;;;;;;5050329;28;19916;-76
2022/05/04 17:31:21;;;;;;;;;;;;;;;;;;5054882;28;19948;-76
2022/05/04 17:36:45;;;;;;;;;;;;;;;;;;5054564;28;19973;-77
2022/05/04 17:39:11;;;;;;;;;;;;;;;;;;5054661;28;19913;-76